createdAt,value
2019-03-31T00:01:16.319Z,9.17
2019-03-31T00:03:45.880Z,9.37
2019-03-31T00:06:16.103Z,10.07
2019-03-31T00:08:46.420Z,9.33
2019-03-31T00:11:17.100Z,9.13
2019-03-31T00:13:47.462Z,9.23
2019-03-31T00:16:17.521Z,8.50
2019-03-31T00:18:47.621Z,8.50
2019-03-31T00:21:18.280Z,9.80
2019-03-31T00:23:48.379Z,10.57
2019-03-31T00:26:18.961Z,8.77
2019-03-31T00:28:48.920Z,9.30
2019-03-31T00:31:22.437Z,10.03
2019-03-31T00:33:50.801Z,9.43
2019-03-31T00:36:21.560Z,9.67
2019-03-31T00:38:51.747Z,9.07
2019-03-31T00:41:22.200Z,9.47
2019-03-31T00:43:53.900Z,9.97
2019-03-31T00:46:23.619Z,9.90
2019-03-31T00:48:56.580Z,9.40
2019-03-31T00:51:27.280Z,9.50
2019-03-31T00:53:57.959Z,8.97
2019-03-31T00:56:27.842Z,9.30
2019-03-31T00:58:58.139Z,9.30
2019-03-31T01:01:36.483Z,9.03
2019-03-31T01:04:01.288Z,8.80
2019-03-31T01:06:31.100Z,9.47
2019-03-31T01:09:02.223Z,9.77
2019-03-31T01:11:32.124Z,8.93
2019-03-31T01:14:02.104Z,9.13
2019-03-31T01:16:32.544Z,9.60
2019-03-31T01:19:03.003Z,8.53
2019-03-31T01:21:37.578Z,9.43
2019-03-31T01:24:10.840Z,9.03
2019-03-31T01:26:40.961Z,9.50
2019-03-31T01:29:11.119Z,8.80
2019-03-31T01:31:50.071Z,9.57
2019-03-31T01:34:14.639Z,8.83
2019-03-31T01:36:47.000Z,8.93
2019-03-31T01:39:16.780Z,9.77
2019-03-31T01:41:46.843Z,8.70
2019-03-31T01:44:16.579Z,8.67
2019-03-31T01:46:46.520Z,9.23
2019-03-31T01:49:22.859Z,9.77
2019-03-31T01:51:53.261Z,8.83
2019-03-31T01:54:23.780Z,9.70
2019-03-31T01:56:53.631Z,9.73
2019-03-31T01:59:33.860Z,9.50
2019-03-31T02:02:04.758Z,9.37
2019-03-31T02:04:35.324Z,8.77
2019-03-31T02:07:07.649Z,9.50
2019-03-31T02:09:40.484Z,9.40
2019-03-31T02:12:11.604Z,8.83
2019-03-31T02:14:50.363Z,9.33
2019-03-31T02:17:20.685Z,9.90
2019-03-31T02:19:50.703Z,9.27
2019-03-31T02:22:21.004Z,8.97
2019-03-31T02:24:53.705Z,9.40
2019-03-31T02:27:23.744Z,8.77
2019-03-31T02:29:53.567Z,9.00
2019-03-31T02:32:24.697Z,8.87
2019-03-31T02:34:57.287Z,10.00
2019-03-31T02:37:27.547Z,9.67
2019-03-31T02:39:57.625Z,9.07
2019-03-31T02:42:28.144Z,9.03
2019-03-31T02:44:58.365Z,9.43
2019-03-31T02:47:28.326Z,9.27
2019-03-31T02:49:58.344Z,9.17
2019-03-31T02:52:28.163Z,9.17
2019-03-31T02:54:57.905Z,9.77
2019-03-31T02:57:32.341Z,9.27
2019-03-31T03:00:02.966Z,9.70
2019-03-31T03:02:42.165Z,8.90
2019-03-31T03:05:18.405Z,8.43
2019-03-31T03:07:40.653Z,9.30
2019-03-31T03:10:11.749Z,9.53
2019-03-31T03:12:43.167Z,9.83
2019-03-31T03:15:14.708Z,9.03
2019-03-31T03:17:44.380Z,9.20
2019-03-31T03:20:14.708Z,9.67
2019-03-31T03:22:44.607Z,9.37
2019-03-31T03:25:13.808Z,9.37
2019-03-31T03:27:43.308Z,9.23
2019-03-31T03:30:28.175Z,9.33
2019-03-31T03:33:15.151Z,8.33
2019-03-31T03:35:29.341Z,8.83
2019-03-31T03:37:59.021Z,9.10
2019-03-31T03:40:29.163Z,9.27
2019-03-31T03:42:59.143Z,9.03
2019-03-31T03:45:29.261Z,9.20
2019-03-31T03:47:59.020Z,8.60
2019-03-31T03:50:28.683Z,9.50
2019-03-31T03:52:58.521Z,9.10
2019-03-31T03:55:30.069Z,9.03
2019-03-31T03:58:00.137Z,9.17
2019-03-31T04:00:29.725Z,9.10
2019-03-31T04:03:00.140Z,9.07
2019-03-31T04:05:29.881Z,9.33
2019-03-31T04:07:59.921Z,8.90
2019-03-31T04:11:05.880Z,9.03
2019-03-31T04:13:35.280Z,9.33
2019-03-31T04:16:04.802Z,9.63
2019-03-31T04:18:34.540Z,9.30
2019-03-31T04:21:04.603Z,8.63
2019-03-31T04:23:34.447Z,8.60
2019-03-31T04:26:04.086Z,8.87
2019-03-31T04:28:33.563Z,9.60
2019-03-31T04:31:04.101Z,8.73
2019-03-31T04:33:49.602Z,8.87
2019-03-31T04:36:05.020Z,9.10
2019-03-31T04:38:34.801Z,9.67
2019-03-31T04:41:04.626Z,8.77
2019-03-31T04:43:35.000Z,9.70
2019-03-31T04:46:04.920Z,8.80
2019-03-31T04:48:34.861Z,8.50
2019-03-31T04:51:04.900Z,9.40
2019-03-31T04:53:34.319Z,10.00
2019-03-31T04:56:04.384Z,9.67
2019-03-31T04:58:33.961Z,9.47
2019-03-31T05:01:04.213Z,9.10
2019-03-31T05:03:34.625Z,8.97
2019-03-31T05:06:04.440Z,9.63
2019-03-31T05:08:35.199Z,9.80
2019-03-31T05:11:04.940Z,9.93
2019-03-31T05:13:35.420Z,8.73
2019-03-31T05:16:05.489Z,9.03
2019-03-31T05:18:35.699Z,9.97
2019-03-31T05:21:05.420Z,9.73
2019-03-31T05:23:34.979Z,9.43
2019-03-31T05:26:05.101Z,8.90
2019-03-31T05:28:35.039Z,8.70
2019-03-31T05:31:04.559Z,9.17
2019-03-31T05:33:34.460Z,8.20
2019-03-31T05:36:04.164Z,8.90
2019-03-31T05:38:34.100Z,8.63
2019-03-31T05:41:04.464Z,8.80
2019-03-31T05:43:34.839Z,8.00
2019-03-31T05:46:04.761Z,7.83
2019-03-31T05:48:34.599Z,8.37
2019-03-31T05:51:04.200Z,8.43
2019-03-31T05:53:34.080Z,8.00
2019-03-31T05:56:04.104Z,8.30
2019-03-31T05:58:34.681Z,8.33
2019-03-31T06:01:04.203Z,7.93
2019-03-31T06:03:34.181Z,8.80
2019-03-31T06:06:03.779Z,8.50
2019-03-31T06:08:33.920Z,8.30
2019-03-31T06:11:04.310Z,8.70
2019-03-31T06:13:34.639Z,8.30
2019-03-31T06:16:04.541Z,8.87
2019-03-31T06:18:35.160Z,7.87
2019-03-31T06:21:05.240Z,8.13
2019-03-31T06:23:35.299Z,7.77
2019-03-31T06:26:07.996Z,8.17
2019-03-31T06:28:37.660Z,7.87
2019-03-31T06:31:08.122Z,7.90
2019-03-31T06:33:37.901Z,8.03
2019-03-31T06:36:07.940Z,7.70
2019-03-31T06:38:37.660Z,8.23
2019-03-31T06:41:07.905Z,7.80
2019-03-31T06:43:37.881Z,8.37
2019-03-31T06:46:07.961Z,8.43
2019-03-31T06:48:37.800Z,9.17
2019-03-31T06:51:07.803Z,7.70
2019-03-31T06:53:37.246Z,7.90
2019-03-31T06:56:07.620Z,8.13
2019-03-31T06:58:37.084Z,8.50
2019-03-31T07:01:07.840Z,8.57
2019-03-31T07:03:37.280Z,7.77
2019-03-31T07:06:07.281Z,8.20
2019-03-31T07:08:37.561Z,9.80
2019-03-31T07:11:07.166Z,8.53
2019-03-31T07:13:36.279Z,7.93
2019-03-31T07:16:06.360Z,7.47
2019-03-31T07:18:36.120Z,8.70
2019-03-31T07:21:05.323Z,8.10
2019-03-31T07:23:35.621Z,8.33
2019-03-31T07:26:05.060Z,7.73
2019-03-31T07:28:34.508Z,8.37
2019-03-31T07:31:04.526Z,8.47
2019-03-31T07:33:33.982Z,8.70
2019-03-31T07:36:03.928Z,7.87
2019-03-31T07:38:39.212Z,8.20
2019-03-31T07:41:12.557Z,8.00
2019-03-31T07:43:36.790Z,8.43
2019-03-31T07:46:06.681Z,8.37
2019-03-31T07:48:36.660Z,7.90
2019-03-31T07:51:05.883Z,8.50
2019-03-31T07:53:35.360Z,9.00
2019-03-31T07:56:04.641Z,8.60
2019-03-31T07:58:39.431Z,9.33
2019-03-31T08:01:09.486Z,9.20
2019-03-31T08:03:39.067Z,9.30
2019-03-31T08:06:09.026Z,9.50
2019-03-31T08:08:39.187Z,9.60
2019-03-31T08:11:09.086Z,9.80
2019-03-31T08:13:42.421Z,9.10
2019-03-31T08:16:11.700Z,9.93
2019-03-31T08:18:41.820Z,10.93
2019-03-31T08:21:11.101Z,10.77
2019-03-31T08:23:40.779Z,11.40
2019-03-31T08:26:11.140Z,11.60
2019-03-31T08:28:40.980Z,11.77
2019-03-31T08:31:11.360Z,11.53
2019-03-31T08:33:41.403Z,11.63
2019-03-31T08:36:11.680Z,11.67
2019-03-31T08:38:42.150Z,12.20
2019-03-31T08:41:11.649Z,11.93
2019-03-31T08:43:41.047Z,11.70
2019-03-31T08:46:09.999Z,11.77
2019-03-31T08:48:38.890Z,12.03
2019-03-31T08:51:07.966Z,11.90
2019-03-31T08:53:37.471Z,12.57
2019-03-31T08:56:08.711Z,12.37
2019-03-31T08:58:37.652Z,12.27
2019-03-31T09:01:09.825Z,13.20
2019-03-31T09:03:38.864Z,13.10
2019-03-31T09:06:08.296Z,12.30
2019-03-31T09:08:37.771Z,12.23
2019-03-31T09:11:07.843Z,12.20
2019-03-31T09:13:37.559Z,12.13
2019-03-31T09:16:08.540Z,12.23
2019-03-31T09:18:37.987Z,12.37
2019-03-31T09:21:12.724Z,12.27
2019-03-31T09:23:42.727Z,12.03
2019-03-31T09:26:12.673Z,11.90
2019-03-31T09:28:42.570Z,12.50
2019-03-31T09:31:14.588Z,12.10
2019-03-31T09:33:44.701Z,11.77
2019-03-31T09:36:16.478Z,11.30
2019-03-31T09:38:48.400Z,11.93
2019-03-31T09:41:17.643Z,11.27
2019-03-31T09:43:47.682Z,12.37
2019-03-31T09:46:17.019Z,12.27
2019-03-31T09:48:49.502Z,12.80
2019-03-31T09:51:18.742Z,13.07
2019-03-31T09:53:48.281Z,13.27
2019-03-31T09:56:17.921Z,12.10
2019-03-31T09:58:47.567Z,13.43
2019-03-31T10:01:18.694Z,11.87
2019-03-31T10:03:49.085Z,11.47
2019-03-31T10:06:29.499Z,12.17
2019-03-31T10:08:51.522Z,12.60
2019-03-31T10:11:21.783Z,11.37
2019-03-31T10:13:54.483Z,10.40
2019-03-31T10:16:28.045Z,11.40
2019-03-31T10:19:04.322Z,10.67
2019-03-31T10:21:37.503Z,10.53
2019-03-31T10:24:16.682Z,10.30
2019-03-31T10:26:49.823Z,10.57
2019-03-31T10:29:23.842Z,11.67
2019-03-31T10:31:54.863Z,11.93
2019-03-31T10:34:30.686Z,11.63
2019-03-31T10:37:00.883Z,11.20
2019-03-31T10:39:37.005Z,11.77
2019-03-31T10:42:07.262Z,12.07
2019-03-31T10:44:38.703Z,12.83
2019-03-31T10:47:09.623Z,12.23
2019-03-31T10:49:39.846Z,12.57
2019-03-31T10:52:10.564Z,12.40
2019-03-31T10:54:41.585Z,11.33
2019-03-31T10:57:12.601Z,11.20
2019-03-31T10:59:43.302Z,11.67
2019-03-31T11:02:15.361Z,11.27
2019-03-31T11:04:45.480Z,11.00
2019-03-31T11:07:15.787Z,10.60
2019-03-31T11:09:47.580Z,10.13
2019-03-31T11:12:19.340Z,9.73
2019-03-31T11:14:50.539Z,10.37
2019-03-31T11:17:20.839Z,10.10
2019-03-31T11:19:51.155Z,9.97
2019-03-31T11:22:29.890Z,10.00
2019-03-31T11:25:19.909Z,9.60
2019-03-31T11:27:38.189Z,9.73
2019-03-31T11:30:24.732Z,9.93
2019-03-31T11:32:54.069Z,9.40
2019-03-31T11:35:24.889Z,9.60
2019-03-31T11:37:55.409Z,10.27
2019-03-31T11:40:25.351Z,9.93
2019-03-31T11:42:57.229Z,10.13
2019-03-31T11:45:28.480Z,9.43
2019-03-31T11:47:59.519Z,9.80
2019-03-31T11:50:31.542Z,9.40
2019-03-31T11:53:03.679Z,9.57
2019-03-31T11:55:34.262Z,10.07
2019-03-31T11:58:04.563Z,9.50
2019-03-31T12:00:39.648Z,9.57
2019-03-31T12:03:11.030Z,9.30
2019-03-31T12:05:41.486Z,8.27
2019-03-31T12:08:19.599Z,8.83
2019-03-31T12:10:51.159Z,8.80
2019-03-31T12:13:21.282Z,9.27
2019-03-31T12:15:52.220Z,9.20
2019-03-31T12:18:23.359Z,8.40
2019-03-31T12:20:54.099Z,9.03
2019-03-31T12:23:28.515Z,8.50
2019-03-31T12:26:00.028Z,9.20
2019-03-31T12:28:32.359Z,8.93
2019-03-31T12:31:06.541Z,9.17
2019-03-31T12:33:39.079Z,8.23
2019-03-31T12:36:10.599Z,8.40
2019-03-31T12:38:41.140Z,9.10
2019-03-31T12:41:11.719Z,8.40
2019-03-31T12:43:43.961Z,8.47
2019-03-31T12:46:14.722Z,9.07
2019-03-31T12:48:45.700Z,8.70
2019-03-31T12:51:15.520Z,9.50
2019-03-31T12:53:45.240Z,8.60
2019-03-31T12:56:14.824Z,8.73
2019-03-31T12:58:53.985Z,8.43
2019-03-31T13:01:26.487Z,8.10
2019-03-31T13:03:58.082Z,8.00
2019-03-31T13:06:32.841Z,8.07
2019-03-31T13:09:07.839Z,7.60
2019-03-31T13:11:38.001Z,7.67
2019-03-31T13:14:09.282Z,7.53
2019-03-31T13:16:41.150Z,7.97
2019-03-31T13:19:14.459Z,7.53
2019-03-31T13:21:45.562Z,7.97
2019-03-31T13:24:18.444Z,7.13
2019-03-31T13:26:48.940Z,7.80
2019-03-31T13:29:23.162Z,7.87
2019-03-31T13:31:55.379Z,7.73
2019-03-31T13:34:28.782Z,7.60
2019-03-31T13:36:59.800Z,7.13
2019-03-31T13:39:35.902Z,7.13
2019-03-31T13:42:08.941Z,7.53
2019-03-31T13:44:46.890Z,8.23
2019-03-31T13:47:18.502Z,7.63
2019-03-31T13:49:51.981Z,7.37
2019-03-31T13:52:24.706Z,7.77
2019-03-31T13:54:54.902Z,7.53
2019-03-31T13:57:26.513Z,8.40
2019-03-31T13:59:59.322Z,8.67
2019-03-31T14:02:29.574Z,7.43
2019-03-31T14:04:59.882Z,7.70
2019-03-31T14:07:33.239Z,8.17
2019-03-31T14:10:02.860Z,7.57
2019-03-31T14:12:34.740Z,7.07
2019-03-31T14:15:18.519Z,7.90
2019-03-31T14:17:39.502Z,8.47
2019-03-31T14:20:10.520Z,7.40
2019-03-31T14:22:42.300Z,8.53
2019-03-31T14:25:12.301Z,8.30
2019-03-31T14:27:43.080Z,7.93
2019-03-31T14:30:13.361Z,7.80
2019-03-31T14:32:44.760Z,7.77
2019-03-31T14:35:15.180Z,7.27
2019-03-31T14:37:45.380Z,7.17
2019-03-31T14:40:16.083Z,7.63
2019-03-31T14:42:47.082Z,7.90
2019-03-31T14:45:32.285Z,7.73
2019-03-31T14:48:04.281Z,8.63
2019-03-31T14:50:35.940Z,7.17
2019-03-31T14:53:07.021Z,7.47
2019-03-31T14:55:36.660Z,8.10
2019-03-31T14:58:08.263Z,7.30
2019-03-31T15:00:38.364Z,7.47
2019-03-31T15:03:17.985Z,8.43
2019-03-31T15:05:47.565Z,7.77
2019-03-31T15:08:17.326Z,8.57
2019-03-31T15:10:47.030Z,7.60
2019-03-31T15:13:17.526Z,7.90
2019-03-31T15:15:49.329Z,7.13
2019-03-31T15:18:21.681Z,7.23
2019-03-31T15:20:52.763Z,8.83
2019-03-31T15:23:29.126Z,8.50
2019-03-31T15:25:56.760Z,7.80
2019-03-31T15:28:28.542Z,7.80
2019-03-31T15:30:59.603Z,7.77
2019-03-31T15:33:32.122Z,7.50
2019-03-31T15:36:05.560Z,7.17
2019-03-31T15:38:39.421Z,7.57
2019-03-31T15:41:21.261Z,7.33
2019-03-31T15:43:53.222Z,6.77
2019-03-31T15:46:26.461Z,7.43
2019-03-31T15:48:58.143Z,7.73
2019-03-31T15:51:31.400Z,7.67
2019-03-31T15:54:03.522Z,7.70
2019-03-31T15:56:35.941Z,7.47
2019-03-31T15:59:09.120Z,7.30
2019-03-31T16:01:43.188Z,7.20
2019-03-31T16:04:14.346Z,7.77
2019-03-31T16:06:45.025Z,7.13
2019-03-31T16:09:23.224Z,7.50
2019-03-31T16:11:53.602Z,8.03
2019-03-31T16:14:20.145Z,7.93
2019-03-31T16:16:51.046Z,7.80
2019-03-31T16:19:21.044Z,7.57
2019-03-31T16:21:54.666Z,7.73
2019-03-31T16:24:41.285Z,8.30
2019-03-31T16:27:13.239Z,7.90
2019-03-31T16:29:44.588Z,8.30
2019-03-31T16:32:22.386Z,7.67
2019-03-31T16:34:53.945Z,7.67
2019-03-31T16:37:24.984Z,7.93
2019-03-31T16:39:57.185Z,7.73
2019-03-31T16:42:29.566Z,7.50
2019-03-31T16:45:03.604Z,8.10
2019-03-31T16:47:36.143Z,7.87
2019-03-31T16:50:09.619Z,7.40
2019-03-31T16:52:41.452Z,8.13
2019-03-31T16:55:21.051Z,7.60
2019-03-31T16:57:52.581Z,7.73
2019-03-31T17:00:24.909Z,7.60
2019-03-31T17:02:56.725Z,7.10
2019-03-31T17:05:27.144Z,12.10
2019-03-31T17:07:57.786Z,9.70
2019-03-31T17:10:29.228Z,8.93
2019-03-31T17:12:59.681Z,7.80
2019-03-31T17:15:30.842Z,7.80
2019-03-31T17:18:01.482Z,7.63
2019-03-31T17:20:32.321Z,7.53
2019-03-31T17:23:04.382Z,7.30
2019-03-31T17:25:36.840Z,8.10
2019-03-31T17:28:10.331Z,8.10
2019-03-31T17:30:41.719Z,7.63
2019-03-31T17:33:18.123Z,8.27
2019-03-31T17:35:51.122Z,7.87
2019-03-31T17:38:22.760Z,8.27
2019-03-31T17:40:54.212Z,7.93
2019-03-31T17:43:30.744Z,8.10
2019-03-31T17:46:02.303Z,7.97
2019-03-31T17:48:36.910Z,7.97
2019-03-31T17:51:11.535Z,8.40
2019-03-31T17:53:45.833Z,7.83
2019-03-31T17:56:19.582Z,7.30
2019-03-31T17:58:54.609Z,8.73
2019-03-31T18:01:26.923Z,8.47
2019-03-31T18:03:57.904Z,7.93
2019-03-31T18:06:29.489Z,8.43
2019-03-31T18:09:07.246Z,8.13
2019-03-31T18:11:45.420Z,9.50
2019-03-31T18:14:19.451Z,9.47
2019-03-31T18:16:50.711Z,9.23
2019-03-31T18:19:24.543Z,8.63
2019-03-31T18:21:56.491Z,8.77
2019-03-31T18:24:30.787Z,8.57
2019-03-31T18:27:07.812Z,9.03
2019-03-31T18:29:37.000Z,9.37
2019-03-31T18:32:15.014Z,9.03
2019-03-31T18:34:56.393Z,9.13
2019-03-31T18:37:28.078Z,8.73
2019-03-31T18:39:59.970Z,8.90
2019-03-31T18:42:33.809Z,9.17
2019-03-31T18:45:07.711Z,9.27
2019-03-31T18:47:42.279Z,9.07
2019-03-31T18:50:13.687Z,9.53
2019-03-31T18:52:45.763Z,9.63
2019-03-31T18:55:35.183Z,10.23
2019-03-31T18:58:15.685Z,10.07
2019-03-31T19:01:04.069Z,10.47
2019-03-31T19:03:48.860Z,10.10
2019-03-31T19:06:33.572Z,10.30
2019-03-31T19:09:13.267Z,10.23
2019-03-31T19:11:56.465Z,9.80
2019-03-31T19:14:29.745Z,9.43
2019-03-31T19:17:04.952Z,9.83
2019-03-31T19:19:43.552Z,9.40
2019-03-31T19:22:22.970Z,10.73
2019-03-31T19:24:59.991Z,9.03
2019-03-31T19:27:37.684Z,10.07
2019-03-31T19:30:26.925Z,9.53
2019-03-31T19:33:04.520Z,10.90
2019-03-31T19:35:36.834Z,9.10
2019-03-31T19:38:14.176Z,9.77
2019-03-31T19:41:03.033Z,9.77
2019-03-31T19:43:22.125Z,10.47
2019-03-31T19:45:56.584Z,10.57
2019-03-31T19:48:29.965Z,10.53
2019-03-31T19:51:05.208Z,9.70
2019-03-31T19:53:42.132Z,10.93
2019-03-31T19:56:27.041Z,10.43
2019-03-31T19:59:09.091Z,10.17
2019-03-31T20:01:49.156Z,9.97
2019-03-31T20:04:43.289Z,10.47
2019-03-31T20:07:28.503Z,10.30
2019-03-31T20:10:18.842Z,10.93
2019-03-31T20:12:56.466Z,9.57
2019-03-31T20:15:36.868Z,10.10
2019-03-31T20:18:19.328Z,10.37
2019-03-31T20:21:01.735Z,9.57
2019-03-31T20:23:39.182Z,10.07
2019-03-31T20:26:20.844Z,10.30
2019-03-31T20:28:58.060Z,10.07
2019-03-31T20:31:38.352Z,10.27
2019-03-31T20:34:19.178Z,10.50
2019-03-31T20:36:56.304Z,10.17
2019-03-31T20:39:37.133Z,10.23
2019-03-31T20:42:17.909Z,9.57
2019-03-31T20:44:48.055Z,10.67
2019-03-31T20:47:30.185Z,9.77
2019-03-31T20:50:00.719Z,9.70
2019-03-31T20:52:30.964Z,10.03
2019-03-31T20:55:15.366Z,9.27
2019-03-31T20:57:34.328Z,9.90
2019-03-31T21:00:05.930Z,9.83
2019-03-31T21:02:35.722Z,9.33
2019-03-31T21:05:06.087Z,9.93
2019-03-31T21:07:36.923Z,9.53
2019-03-31T21:10:08.887Z,9.80
2019-03-31T21:12:38.695Z,9.97
2019-03-31T21:15:10.540Z,9.30
2019-03-31T21:17:39.837Z,9.50
2019-03-31T21:20:11.267Z,9.77
2019-03-31T21:22:40.680Z,10.03
2019-03-31T21:25:13.972Z,10.30
2019-03-31T21:27:44.222Z,9.90
2019-03-31T21:30:14.504Z,9.63
2019-03-31T21:32:45.444Z,9.50
2019-03-31T21:35:17.043Z,9.23
2019-03-31T21:37:46.432Z,9.90
2019-03-31T21:40:16.315Z,10.27
2019-03-31T21:42:46.381Z,9.23
2019-03-31T21:45:16.240Z,10.13
2019-03-31T21:47:46.360Z,9.90
2019-03-31T21:50:16.591Z,9.37
2019-03-31T21:52:46.599Z,10.00
2019-03-31T21:55:16.471Z,10.73
2019-03-31T21:57:46.543Z,9.50
2019-03-31T22:00:15.950Z,9.23
2019-03-31T22:02:46.107Z,9.67
2019-03-31T22:05:15.775Z,10.17
2019-03-31T22:07:46.407Z,9.20
2019-03-31T22:10:17.248Z,9.33
2019-03-31T22:12:48.087Z,9.43
2019-03-31T22:15:18.410Z,9.43
2019-03-31T22:17:48.263Z,9.47
2019-03-31T22:20:17.931Z,10.77
2019-03-31T22:22:47.938Z,10.00
2019-03-31T22:25:18.339Z,9.87
2019-03-31T22:27:48.145Z,9.23
2019-03-31T22:30:17.805Z,9.20
2019-03-31T22:32:47.467Z,9.57
2019-03-31T22:35:17.428Z,9.17
2019-03-31T22:37:47.407Z,9.17
2019-03-31T22:40:17.426Z,9.27
2019-03-31T22:42:47.183Z,9.87
2019-03-31T22:45:17.900Z,10.20
2019-03-31T22:47:47.648Z,9.33
2019-03-31T22:50:18.062Z,9.90
2019-03-31T22:52:48.006Z,9.60
2019-03-31T22:55:18.441Z,9.77
2019-03-31T22:57:49.187Z,9.90
2019-03-31T23:00:20.665Z,9.40
2019-03-31T23:02:51.309Z,10.03
2019-03-31T23:05:20.868Z,9.47
2019-03-31T23:07:50.483Z,9.70
2019-03-31T23:10:21.720Z,9.33
2019-03-31T23:12:56.621Z,9.80
2019-03-31T23:15:31.640Z,9.10
2019-03-31T23:18:01.662Z,10.03
2019-03-31T23:20:31.882Z,9.57
2019-03-31T23:23:04.320Z,10.50
2019-03-31T23:25:35.596Z,9.67
2019-03-31T23:28:06.020Z,9.80
2019-03-31T23:30:35.500Z,9.30
2019-03-31T23:33:06.021Z,9.47
2019-03-31T23:35:36.321Z,9.67
2019-03-31T23:38:07.320Z,9.37
2019-03-31T23:40:37.400Z,9.07
2019-03-31T23:43:08.420Z,9.87
2019-03-31T23:45:41.180Z,9.40
2019-03-31T23:48:13.341Z,10.30
2019-03-31T23:50:43.502Z,9.43
2019-03-31T23:53:22.023Z,8.83
2019-03-31T23:55:53.283Z,10.20
2019-03-31T23:58:23.701Z,8.97
